Time;durP1;ratioP1;P1;durP2;ratioP2;P2;SDS_P1;SDS_P2;PMS_P1;PMS_P2;Temp;Humidity;BMP_temperature;BMP_pressure;BME280_temperature;BME280_humidity;BME280_pressure;Samples;Min_cycle;Max_cycle;Signal;HPM_P1;HPM_P2
2021/03/23 00:00:36;;;;;;;7.85;5.65;;;8.90;70.00;;;;;;5071820;28;20450;-74
2021/03/23 00:03:14;;;;;;;7.60;5.80;;;8.90;70.00;;;;;;5071652;28;20112;-74
2021/03/23 00:05:41;;;;;;;7.85;5.70;;;8.90;70.00;;;;;;5071723;28;20043;-74
2021/03/23 00:08:20;;;;;;;7.68;5.65;;;8.90;70.60;;;;;;5071829;28;20063;-74
2021/03/23 00:10:46;;;;;;;7.10;5.47;;;8.80;69.90;;;;;;5071726;28;20025;-75
2021/03/23 00:13:11;;;;;;;8.68;5.60;;;8.80;70.00;;;;;;5072038;28;20112;-74
2021/03/23 00:15:37;;;;;;;6.90;5.40;;;8.80;70.00;;;;;;5071706;28;20021;-74
2021/03/23 00:18:08;;;;;;;7.90;5.88;;;8.80;70.00;;;;;;5073061;28;20025;-74
2021/03/23 00:20:34;;;;;;;6.68;5.25;;;8.80;70.10;;;;;;5072881;28;20020;-75
2021/03/23 00:22:59;;;;;;;10.23;5.65;;;8.80;70.10;;;;;;5072976;28;20047;-75
2021/03/23 00:25:25;;;;;;;7.20;5.47;;;8.80;70.10;;;;;;5072948;28;20498;-74
2021/03/23 00:27:51;;;;;;;8.00;5.82;;;8.80;70.20;;;;;;5072893;28;20029;-74
2021/03/23 00:30:17;;;;;;;8.68;6.10;;;8.80;70.20;;;;;;5071388;28;20059;-74
2021/03/23 00:32:43;;;;;;;7.60;5.35;;;8.80;70.20;;;;;;5071645;28;20029;-74
2021/03/23 00:35:09;;;;;;;9.13;5.55;;;8.80;70.20;;;;;;5072820;28;20043;-74
2021/03/23 00:37:36;;;;;;;11.80;5.80;;;8.80;70.20;;;;;;5072902;28;20047;-74
2021/03/23 00:40:04;;;;;;;6.50;5.45;;;8.80;70.20;;;;;;5071548;28;20074;-74
2021/03/23 00:42:30;;;;;;;7.85;5.10;;;8.80;70.20;;;;;;5072701;28;20034;-74
2021/03/23 00:44:56;;;;;;;7.93;5.65;;;8.80;70.20;;;;;;5072609;28;20032;-74
2021/03/23 00:47:22;;;;;;;7.15;5.72;;;8.80;70.20;;;;;;5074484;28;20025;-74
2021/03/23 00:49:48;;;;;;;7.57;5.57;;;8.80;70.20;;;;;;5075186;28;20093;-74
2021/03/23 00:52:13;;;;;;;9.13;5.45;;;8.70;70.20;;;;;;5075234;28;20468;-74
2021/03/23 00:54:39;;;;;;;7.38;5.85;;;8.70;70.20;;;;;;5075191;28;20463;-74
2021/03/23 00:57:05;;;;;;;7.78;5.68;;;8.70;70.20;;;;;;5075565;28;20024;-74
2021/03/23 00:59:30;;;;;;;6.93;5.20;;;8.70;70.20;;;;;;5075258;28;20031;-74
2021/03/23 01:01:56;;;;;;;7.20;5.20;;;8.60;70.20;;;;;;5075032;28;20121;-74
2021/03/23 01:04:22;;;;;;;7.32;5.47;;;8.60;70.20;;;;;;5074981;28;20460;-73
2021/03/23 01:06:47;;;;;;;6.85;5.53;;;8.60;70.20;;;;;;5075030;28;20025;-74
2021/03/23 01:09:13;;;;;;;7.20;5.40;;;8.70;70.30;;;;;;5074913;28;20491;-74
2021/03/23 01:11:39;;;;;;;7.78;5.65;;;8.60;70.20;;;;;;5075068;28;20017;-74
2021/03/23 01:14:05;;;;;;;7.57;5.50;;;8.70;70.20;;;;;;5076274;28;20099;-74
2021/03/23 01:16:31;;;;;;;5.93;4.47;;;8.70;70.20;;;;;;5076006;28;20024;-75
2021/03/23 01:18:57;;;;;;;8.40;5.50;;;8.70;70.10;;;;;;5075132;28;20062;-74
2021/03/23 01:21:23;;;;;;;9.02;5.35;;;8.70;69.90;;;;;;5076128;28;20052;-75
2021/03/23 01:23:48;;;;;;;8.07;5.18;;;8.70;69.80;;;;;;5074700;28;20020;-75
2021/03/23 01:26:14;;;;;;;8.23;5.30;;;8.60;69.60;;;;;;5074693;28;20021;-74
2021/03/23 01:28:40;;;;;;;5.95;5.00;;;8.60;69.70;;;;;;5074369;28;20044;-74
2021/03/23 01:31:05;;;;;;;7.30;5.45;;;8.60;69.70;;;;;;5075850;28;20091;-74
2021/03/23 01:33:31;;;;;;;8.27;5.30;;;8.60;69.70;;;;;;5074482;28;20384;-74
2021/03/23 01:35:57;;;;;;;7.13;5.00;;;8.60;69.60;;;;;;5075947;28;20039;-74
2021/03/23 01:38:22;;;;;;;7.55;5.00;;;8.60;69.60;;;;;;5074444;28;20016;-74
2021/03/23 01:40:48;;;;;;;6.25;4.72;;;8.60;69.70;;;;;;5074424;28;20027;-74
2021/03/23 01:43:33;;;;;;;6.70;5.15;;;8.60;69.60;;;;;;5074339;28;20016;-75
2021/03/23 01:46:01;;;;;;;6.10;4.78;;;8.60;69.60;;;;;;5075581;28;20387;-74
2021/03/23 01:48:29;;;;;;;8.60;5.78;;;8.60;69.60;;;;;;5075448;28;20024;-74
2021/03/23 01:51:07;;;;;;;8.32;5.38;;;8.60;69.40;;;;;;5074156;28;20046;-75
2021/03/23 01:53:40;;;;;;;7.30;4.78;;;8.50;69.50;;;;;;5075451;28;20036;-74
2021/03/23 01:56:07;;;;;;;9.07;5.03;;;8.50;69.60;;;;;;5073956;28;20027;-74
2021/03/23 01:58:36;;;;;;;7.70;5.13;;;8.60;69.60;;;;;;5073131;28;20091;-74
2021/03/23 02:01:04;;;;;;;7.32;4.70;;;8.60;69.60;;;;;;5075249;28;20464;-74
2021/03/23 02:03:29;;;;;;;7.25;4.88;;;8.50;69.60;;;;;;5075132;28;20139;-74
2021/03/23 02:06:00;;;;;;;7.50;4.78;;;8.50;69.60;;;;;;5074382;28;20044;-74
2021/03/23 02:08:27;;;;;;;6.65;4.82;;;8.60;70.30;;;;;;5073629;28;20103;-74
2021/03/23 02:10:55;;;;;;;8.90;5.47;;;8.50;69.50;;;;;;5073851;28;20128;-74
2021/03/23 02:13:21;;;;;;;6.88;4.85;;;8.50;69.50;;;;;;5074961;28;20128;-74
2021/03/23 02:15:48;;;;;;;6.38;5.07;;;8.50;69.50;;;;;;5070648;28;20123;-74
2021/03/23 02:18:22;;;;;;;8.60;5.28;;;8.60;69.60;;;;;;5073542;28;20020;-74
2021/03/23 02:21:01;;;;;;;7.55;5.28;;;8.60;69.60;;;;;;5075272;28;20069;-74
2021/03/23 02:23:34;;;;;;;7.78;5.03;;;8.60;69.60;;;;;;5074675;28;20059;-74
2021/03/23 02:26:01;;;;;;;6.60;5.00;;;8.60;69.60;;;;;;5074782;28;20024;-74
2021/03/23 02:28:27;;;;;;;6.97;5.05;;;8.60;69.60;;;;;;5074487;28;20032;-75
2021/03/23 02:30:53;;;;;;;7.18;5.07;;;8.60;69.60;;;;;;5074570;28;20033;-74
2021/03/23 02:33:20;;;;;;;5.85;4.70;;;8.60;69.60;;;;;;5073209;28;20032;-75
2021/03/23 02:35:46;;;;;;;8.60;5.75;;;8.70;69.60;;;;;;5073251;28;20491;-74
2021/03/23 02:38:12;;;;;;;10.68;5.40;;;8.60;69.50;;;;;;5073238;28;20013;-74
2021/03/23 02:40:40;;;;;;;9.25;5.50;;;8.70;69.60;;;;;;5074563;28;20032;-74
2021/03/23 02:43:06;;;;;;;9.40;6.45;;;8.60;69.50;;;;;;5073410;28;20029;-74
2021/03/23 02:45:32;;;;;;;10.07;6.15;;;8.60;69.60;;;;;;5074809;28;20025;-74
2021/03/23 02:47:57;;;;;;;10.63;7.53;;;8.60;69.60;;;;;;5073171;28;20100;-74
2021/03/23 02:50:23;;;;;;;9.48;6.57;;;8.60;69.60;;;;;;5073106;28;20028;-74
2021/03/23 02:52:49;;;;;;;10.80;7.05;;;8.60;69.60;;;;;;5074694;28;20032;-75
2021/03/23 02:55:15;;;;;;;10.23;7.25;;;8.60;69.70;;;;;;5073961;28;20379;-74
2021/03/23 02:57:41;;;;;;;10.85;7.15;;;8.60;69.70;;;;;;5072799;28;20095;-75
2021/03/23 03:00:09;;;;;;;10.85;7.80;;;8.60;69.80;;;;;;5072635;28;20421;-75
2021/03/23 03:02:35;;;;;;;12.55;8.00;;;8.60;69.80;;;;;;5073955;28;20013;-75
2021/03/23 03:05:01;;;;;;;10.23;7.57;;;8.60;69.80;;;;;;5073864;28;20024;-74
2021/03/23 03:07:26;;;;;;;12.80;8.43;;;8.60;70.40;;;;;;5072496;28;20024;-74
2021/03/23 03:09:52;;;;;;;12.75;8.80;;;8.60;69.80;;;;;;5073700;28;20421;-74
2021/03/23 03:12:18;;;;;;;12.57;8.32;;;8.60;69.90;;;;;;5073728;28;20016;-74
2021/03/23 03:14:43;;;;;;;11.07;7.97;;;8.60;69.90;;;;;;5073867;28;20150;-74
2021/03/23 03:17:09;;;;;;;11.98;8.43;;;8.60;69.90;;;;;;5073591;28;20056;-74
2021/03/23 03:19:35;;;;;;;12.63;9.07;;;8.60;70.00;;;;;;5073453;28;20020;-74
2021/03/23 03:22:00;;;;;;;15.00;9.98;;;8.50;70.00;;;;;;5073846;28;20104;-74
2021/03/23 03:24:26;;;;;;;12.80;8.95;;;8.50;70.00;;;;;;5074027;28;20107;-74
2021/03/23 03:26:52;;;;;;;16.83;11.23;;;8.60;70.00;;;;;;5072163;28;20016;-74
2021/03/23 03:29:17;;;;;;;15.02;10.75;;;8.60;70.10;;;;;;5072036;28;20492;-74
2021/03/23 03:31:43;;;;;;;18.05;11.70;;;8.60;70.10;;;;;;5072227;28;20024;-74
2021/03/23 03:34:09;;;;;;;14.85;10.50;;;8.50;70.00;;;;;;5072254;28;20052;-74
2021/03/23 03:36:35;;;;;;;15.20;10.63;;;8.50;70.10;;;;;;5073551;28;20025;-74
2021/03/23 03:39:03;;;;;;;15.48;10.48;;;8.50;70.10;;;;;;5072104;28;20024;-75
2021/03/23 03:41:29;;;;;;;15.68;10.70;;;8.60;70.20;;;;;;5072091;28;20384;-74
2021/03/23 03:43:55;;;;;;;16.10;10.07;;;8.50;70.20;;;;;;5073959;28;20409;-74
2021/03/23 03:46:20;;;;;;;16.73;11.07;;;8.60;70.20;;;;;;5073387;28;20020;-74
2021/03/23 03:48:46;;;;;;;16.30;10.15;;;8.60;70.10;;;;;;5071911;28;20021;-75
2021/03/23 03:51:13;;;;;;;15.50;10.82;;;8.60;70.20;;;;;;5071926;28;20109;-74
2021/03/23 03:53:39;;;;;;;15.73;11.55;;;8.50;70.20;;;;;;5071876;28;20016;-75
2021/03/23 03:56:05;;;;;;;18.13;11.73;;;8.50;70.20;;;;;;5071867;28;20380;-74
2021/03/23 03:58:31;;;;;;;15.23;11.43;;;8.50;70.20;;;;;;5071842;28;20469;-74
2021/03/23 04:00:57;;;;;;;15.38;11.20;;;8.50;70.20;;;;;;5073205;28;20082;-75
2021/03/23 04:03:27;;;;;;;16.00;11.40;;;8.50;70.20;;;;;;5071771;28;20013;-74
2021/03/23 04:05:54;;;;;;;18.73;12.10;;;8.50;70.20;;;;;;5071635;28;20035;-75
2021/03/23 04:08:26;;;;;;;16.42;12.18;;;8.50;70.20;;;;;;5071539;28;20035;-74
2021/03/23 04:10:53;;;;;;;16.05;10.85;;;8.50;70.20;;;;;;5071660;28;20102;-74
2021/03/23 04:13:19;;;;;;;17.77;11.50;;;8.40;70.20;;;;;;5073225;28;20059;-74
2021/03/23 04:15:47;;;;;;;16.52;11.82;;;8.40;70.30;;;;;;5071581;28;20029;-74
2021/03/23 04:18:15;;;;;;;17.30;12.02;;;8.40;70.40;;;;;;5071759;28;20051;-74
2021/03/23 04:20:41;;;;;;;16.25;11.85;;;8.40;70.30;;;;;;5071696;28;20043;-74
2021/03/23 04:23:10;;;;;;;16.92;11.75;;;8.40;70.40;;;;;;5078849;28;20024;-74
2021/03/23 04:25:35;;;;;;;16.50;11.82;;;8.40;70.40;;;;;;5078191;28;20031;-74
2021/03/23 04:28:02;;;;;;;22.52;13.13;;;8.40;70.40;;;;;;5079582;28;20021;-74
2021/03/23 04:30:28;;;;;;;20.98;13.13;;;8.40;70.50;;;;;;5077935;28;20557;-75
2021/03/23 04:32:56;;;;;;;17.27;12.48;;;8.30;70.40;;;;;;5079625;28;20468;-74
2021/03/23 04:35:43;;;;;;;20.40;13.63;;;8.40;70.50;;;;;;5078006;28;20387;-74
2021/03/23 04:38:11;;;;;;;19.40;12.77;;;8.30;70.60;;;;;;5078232;28;20040;-74
2021/03/23 04:40:37;;;;;;;17.33;12.02;;;8.30;70.60;;;;;;5078182;28;20068;-74
2021/03/23 04:43:04;;;;;;;21.42;12.35;;;8.20;70.60;;;;;;5079379;28;20379;-75
2021/03/23 04:45:30;;;;;;;19.23;12.88;;;8.20;70.70;;;;;;5078082;28;20063;-74
2021/03/23 04:47:55;;;;;;;16.60;12.10;;;8.20;70.80;;;;;;5079836;28;20484;-75
2021/03/23 04:50:21;;;;;;;20.33;12.52;;;8.20;70.90;;;;;;5078007;28;20029;-74
2021/03/23 04:52:47;;;;;;;21.05;13.45;;;8.20;70.90;;;;;;5077941;28;20119;-74
2021/03/23 04:55:14;;;;;;;19.00;12.90;;;8.20;70.90;;;;;;5077788;28;20032;-75
2021/03/23 04:57:40;;;;;;;19.77;13.30;;;8.20;71.00;;;;;;5078027;28;20052;-74
2021/03/23 05:00:08;;;;;;;17.52;12.48;;;8.10;71.00;;;;;;5078125;28;20063;-75
2021/03/23 05:02:34;;;;;;;20.33;13.20;;;8.10;71.00;;;;;;5079145;28;20358;-74
2021/03/23 05:05:00;;;;;;;18.58;12.48;;;8.20;71.20;;;;;;5077872;28;20031;-74
2021/03/23 05:07:25;;;;;;;20.23;13.40;;;8.10;71.10;;;;;;5079237;28;20495;-74
2021/03/23 05:09:51;;;;;;;17.95;12.57;;;8.20;71.20;;;;;;5079274;28;20086;-74
2021/03/23 05:12:17;;;;;;;19.67;12.77;;;8.20;71.20;;;;;;5079456;28;20025;-74
2021/03/23 05:14:43;;;;;;;18.40;12.90;;;8.20;71.20;;;;;;5077716;28;20016;-74
2021/03/23 05:17:09;;;;;;;19.33;13.25;;;8.20;71.30;;;;;;5079195;28;20031;-75
2021/03/23 05:19:35;;;;;;;22.08;13.45;;;8.20;71.30;;;;;;5077650;28;20103;-74
2021/03/23 05:22:02;;;;;;;19.95;13.15;;;8.10;71.30;;;;;;5078875;28;20044;-74
2021/03/23 05:24:27;;;;;;;20.35;13.27;;;8.10;71.40;;;;;;5078841;28;20025;-74
2021/03/23 05:26:53;;;;;;;18.00;12.60;;;8.10;71.50;;;;;;5078941;28;20388;-74
2021/03/23 05:29:19;;;;;;;20.65;13.32;;;8.10;71.50;;;;;;5078805;28;20060;-74
2021/03/23 05:31:47;;;;;;;20.65;13.52;;;8.10;71.60;;;;;;5077526;28;20426;-74
2021/03/23 05:34:13;;;;;;;17.98;12.52;;;8.10;71.60;;;;;;5073891;28;20054;-74
2021/03/23 05:36:41;;;;;;;19.83;13.63;;;8.00;71.60;;;;;;5074230;28;20127;-75
2021/03/23 05:39:07;;;;;;;22.98;14.60;;;8.10;71.70;;;;;;5075739;28;20021;-75
2021/03/23 05:42:23;;;;;;;23.77;14.45;;;8.00;71.80;;;;;;5075524;28;20024;-75
2021/03/23 05:45:03;;;;;;;20.92;12.93;;;7.90;71.90;;;;;;5073767;28;20043;-75
2021/03/23 05:47:36;;;;;;;21.92;13.50;;;7.90;72.00;;;;;;5074258;28;20436;-75
2021/03/23 05:50:27;;;;;;;23.60;13.93;;;7.90;72.10;;;;;;5074218;28;20044;-75
2021/03/23 05:53:06;;;;;;;19.23;13.40;;;7.80;72.10;;;;;;5075257;28;20032;-75
2021/03/23 05:55:47;;;;;;;20.85;14.18;;;7.80;72.20;;;;;;5075094;28;20066;-75
2021/03/23 05:58:25;;;;;;;18.75;13.00;;;7.80;72.40;;;;;;5073852;28;20457;-75
2021/03/23 06:00:58;;;;;;;20.88;12.75;;;7.70;72.50;;;;;;5073981;28;20074;-75
2021/03/23 06:03:33;;;;;;;21.25;13.57;;;7.70;72.60;;;;;;5075286;28;20029;-75
2021/03/23 06:06:24;;;;;;;21.48;13.88;;;7.70;72.70;;;;;;5073874;28;20035;-75
2021/03/23 06:08:50;;;;;;;21.90;14.40;;;7.70;72.80;;;;;;5075214;28;20029;-75
2021/03/23 06:11:41;;;;;;;19.80;12.95;;;7.60;72.80;;;;;;5075044;28;20025;-75
2021/03/23 06:14:18;;;;;;;20.17;13.00;;;7.70;72.90;;;;;;5073891;28;20039;-75
2021/03/23 06:17:11;;;;;;;19.52;13.65;;;7.70;73.00;;;;;;5075032;28;20039;-75
2021/03/23 06:19:49;;;;;;;22.40;12.53;;;7.60;73.10;;;;;;5073666;28;20016;-76
2021/03/23 06:22:27;;;;;;;20.23;13.25;;;7.60;73.20;;;;;;5073501;28;20403;-75
2021/03/23 06:25:30;;;;;;;22.08;13.20;;;7.70;73.30;;;;;;5073502;28;20039;-75
2021/03/23 06:28:02;;;;;;;21.27;14.00;;;7.70;73.30;;;;;;5074938;28;20032;-75
2021/03/23 06:30:39;;;;;;;20.15;13.70;;;7.70;73.30;;;;;;5073642;28;20064;-75
2021/03/23 06:33:10;;;;;;;23.13;13.40;;;7.70;73.30;;;;;;5073572;28;20064;-75
2021/03/23 06:35:47;;;;;;;20.92;12.77;;;7.70;73.20;;;;;;5075055;28;20028;-75
2021/03/23 06:38:38;;;;;;;21.92;12.98;;;7.70;73.20;;;;;;5074592;28;20029;-75
2021/03/23 06:41:21;;;;;;;20.85;13.20;;;7.80;73.30;;;;;;5073042;28;20074;-75
2021/03/23 06:43:56;;;;;;;22.20;13.73;;;7.80;73.30;;;;;;5073249;28;20036;-76
2021/03/23 06:46:32;;;;;;;21.27;13.20;;;7.80;73.30;;;;;;5074939;28;20032;-75
2021/03/23 06:49:06;;;;;;;23.23;13.43;;;7.80;73.30;;;;;;5072899;28;20028;-75
2021/03/23 06:51:32;;;;;;;29.08;14.52;;;7.80;73.30;;;;;;5073988;28;20354;-75
2021/03/23 06:54:20;;;;;;;23.23;14.77;;;7.80;73.40;;;;;;5073148;28;20476;-75
2021/03/23 06:56:58;;;;;;;21.48;14.10;;;7.80;73.50;;;;;;5072611;28;20109;-75
2021/03/23 06:59:23;;;;;;;20.55;13.27;;;7.80;73.60;;;;;;5074053;28;20028;-75
2021/03/23 07:01:51;;;;;;;22.25;13.68;;;7.70;73.70;;;;;;5074005;28;20486;-75
2021/03/23 07:04:17;;;;;;;25.90;16.25;;;7.70;73.70;;;;;;5072515;28;20104;-75
2021/03/23 07:06:43;;;;;;;21.92;13.73;;;7.70;73.80;;;;;;5072349;28;20122;-75
2021/03/23 07:09:22;;;;;;;19.92;12.90;;;7.70;73.80;;;;;;5072593;28;20032;-74
2021/03/23 07:12:00;;;;;;;24.30;14.35;;;7.80;74.00;;;;;;5072532;28;20032;-75
2021/03/23 07:14:38;;;;;;;22.88;12.80;;;7.70;73.90;;;;;;5072362;28;20033;-74
2021/03/23 07:17:10;;;;;;;19.58;13.10;;;7.80;74.00;;;;;;5073825;28;20020;-74
2021/03/23 07:19:47;;;;;;;21.17;13.30;;;7.80;74.00;;;;;;5072285;28;20107;-75
2021/03/23 07:22:21;;;;;;;25.55;14.00;;;7.90;74.00;;;;;;5073506;28;20040;-75
2021/03/23 07:24:58;;;;;;;23.55;13.30;;;7.90;73.90;;;;;;5071989;28;20039;-75
2021/03/23 07:27:27;;;;;;;27.27;15.85;;;8.00;73.90;;;;;;5071977;28;20029;-75
2021/03/23 07:30:26;;;;;;;33.80;17.70;;;8.10;73.90;;;;;;5073278;28;20490;-75
2021/03/23 07:32:58;;;;;;;33.83;18.65;;;8.10;74.10;;;;;;5072103;28;20444;-75
2021/03/23 07:35:37;;;;;;;39.70;20.05;;;8.10;74.20;;;;;;5073268;28;20025;-75
2021/03/23 07:38:22;;;;;;;37.13;19.60;;;8.20;74.40;;;;;;5071922;28;20504;-75
2021/03/23 07:40:52;;;;;;;32.80;18.38;;;8.30;74.40;;;;;;5073177;28;20028;-75
2021/03/23 07:43:36;;;;;;;33.92;18.65;;;8.30;74.40;;;;;;5073291;28;20360;-75
2021/03/23 07:46:20;;;;;;;32.38;17.30;;;8.30;74.50;;;;;;5071744;28;20031;-75
2021/03/23 07:48:55;;;;;;;33.00;18.00;;;8.40;74.50;;;;;;5071681;28;20123;-75
2021/03/23 07:51:36;;;;;;;35.10;20.27;;;8.40;74.60;;;;;;5071784;28;20029;-75
2021/03/23 07:54:23;;;;;;;38.03;20.77;;;8.50;74.70;;;;;;5071851;28;20036;-75
2021/03/23 07:56:58;;;;;;;38.50;21.67;;;8.40;74.70;;;;;;5070935;28;20079;-75
2021/03/23 07:59:35;;;;;;;43.42;24.02;;;8.50;75.00;;;;;;5071592;28;20435;-75
2021/03/23 08:02:45;;;;;;;47.65;26.27;;;8.50;75.20;;;;;;5073443;28;20125;-75
2021/03/23 08:05:37;;;;;;;47.92;26.33;;;8.50;75.30;;;;;;5071782;28;20039;-75
2021/03/23 08:08:17;;;;;;;53.15;27.77;;;8.50;75.30;;;;;;5071417;28;20040;-75
2021/03/23 08:11:05;;;;;;;48.35;26.83;;;8.60;75.50;;;;;;5071684;28;20090;-74
2021/03/23 08:14:02;;;;;;;46.10;26.67;;;8.60;75.60;;;;;;5071568;28;20077;-75
2021/03/23 08:16:52;;;;;;;48.15;26.08;;;8.70;75.60;;;;;;5071554;28;20396;-75
2021/03/23 08:19:42;;;;;;;53.33;28.15;;;8.90;75.50;;;;;;5071668;28;20029;-74
2021/03/23 08:22:30;;;;;;;52.45;28.13;;;9.00;75.50;;;;;;5071787;28;20028;-75
2021/03/23 08:25:30;;;;;;;49.17;27.55;;;9.10;75.30;;;;;;5072961;28;20036;-75
2021/03/23 08:28:25;;;;;;;51.25;28.58;;;9.10;75.10;;;;;;5067192;28;20430;-74
2021/03/23 08:31:27;;;;;;;48.95;27.65;;;9.10;75.30;;;;;;5072562;28;20075;-75
2021/03/23 08:34:23;;;;;;;50.20;27.95;;;9.10;75.30;;;;;;5072687;28;20039;-74
2021/03/23 08:37:22;;;;;;;51.42;27.60;;;9.10;75.30;;;;;;5072726;28;20025;-74
2021/03/23 08:40:03;;;;;;;49.05;26.52;;;9.10;75.30;;;;;;5071384;28;20111;-74
2021/03/23 08:42:28;;;;;;;45.90;25.13;;;9.10;75.40;;;;;;5072804;28;20461;-74
2021/03/23 08:45:16;;;;;;;46.05;25.60;;;9.10;75.30;;;;;;5071250;28;20021;-74
2021/03/23 08:47:53;;;;;;;50.40;25.38;;;9.00;75.30;;;;;;5071402;28;20533;-74
2021/03/23 08:50:45;;;;;;;45.65;26.77;;;9.00;75.60;;;;;;5071233;28;20468;-74
2021/03/23 08:53:31;;;;;;;44.25;26.10;;;8.90;75.80;;;;;;5072748;28;20021;-74
2021/03/23 08:55:57;;;;;;;46.42;25.05;;;8.80;76.10;;;;;;5071301;28;20031;-74
2021/03/23 08:58:47;;;;;;;57.13;27.23;;;8.80;76.50;;;;;;5071204;28;20488;-75
2021/03/23 09:04:37;;;;;;;54.88;30.00;;;8.70;76.90;;;;;;5072788;28;20070;-74
2021/03/23 09:07:12;;;;;;;50.22;27.23;;;8.60;77.00;;;;;;5072538;28;20020;-75
2021/03/23 09:09:47;;;;;;;45.40;26.40;;;8.60;77.10;;;;;;5074837;28;20500;-74
2021/03/23 09:12:42;;;;;;;40.03;22.85;;;8.60;77.30;;;;;;5074754;28;20201;-75
2021/03/23 09:15:26;;;;;;;46.58;25.90;;;8.60;77.10;;;;;;5075917;28;20104;-75
2021/03/23 09:17:54;;;;;;;;;;;8.70;77.10;;;;;;5076411;28;20020;-74
2021/03/23 09:20:51;;;;;;;45.33;23.60;;;8.60;77.70;;;;;;5076268;28;19908;-74
2021/03/23 09:23:17;;;;;;;43.95;22.70;;;8.50;77.60;;;;;;5070426;28;20472;-74
2021/03/23 09:25:59;;;;;;;46.38;24.60;;;8.50;77.90;;;;;;5074507;28;20028;-74
2021/03/23 09:28:31;;;;;;;43.35;21.45;;;8.50;78.10;;;;;;5074315;28;20028;-74
2021/03/23 09:31:19;;;;;;;39.45;20.85;;;8.50;78.10;;;;;;5075687;28;20384;-74
2021/03/23 09:33:49;;;;;;;39.85;21.60;;;8.60;78.20;;;;;;5074468;28;20385;-74
2021/03/23 09:36:17;;;;;;;48.25;24.75;;;8.60;78.20;;;;;;5075559;28;20021;-74
2021/03/23 09:38:52;;;;;;;45.70;24.88;;;8.70;78.20;;;;;;5075765;28;20024;-74
2021/03/23 09:41:21;;;;;;;45.25;24.33;;;8.80;78.20;;;;;;5075571;28;20021;-74
2021/03/23 09:43:52;;;;;;;41.25;21.75;;;8.80;78.20;;;;;;5076023;28;20028;-74
2021/03/23 09:46:40;;;;;;;47.95;23.02;;;8.90;78.10;;;;;;5073890;28;20089;-74
2021/03/23 09:49:19;;;;;;;46.15;23.70;;;8.90;78.10;;;;;;5075237;28;20059;-74
2021/03/23 09:51:48;;;;;;;38.63;20.92;;;8.90;78.10;;;;;;5073850;28;20032;-73
2021/03/23 09:54:30;;;;;;;44.03;22.35;;;9.00;78.00;;;;;;5075165;28;20035;-74
2021/03/23 09:57:17;;;;;;;53.38;25.63;;;9.10;77.90;;;;;;5075214;28;20024;-74
2021/03/23 09:59:49;;;;;;;42.80;23.20;;;9.10;77.80;;;;;;5075048;28;20093;-74
2021/03/23 10:02:17;;;;;;;40.70;21.30;;;9.10;77.70;;;;;;5074010;28;20502;-74
2021/03/23 10:04:45;;;;;;;42.40;22.67;;;9.10;77.80;;;;;;5074946;28;20027;-74
2021/03/23 10:07:38;;;;;;;42.50;22.17;;;9.20;77.80;;;;;;5073680;28;20059;-73
2021/03/23 10:10:31;;;;;;;38.35;21.42;;;9.10;77.80;;;;;;5073549;28;20031;-74
2021/03/23 10:13:18;;;;;;;40.43;22.13;;;9.10;78.00;;;;;;5071295;28;20036;-74
2021/03/23 10:15:44;;;;;;;37.67;20.58;;;9.00;78.00;;;;;;5074817;28;20290;-74
2021/03/23 10:18:16;;;;;;;39.53;21.30;;;9.00;78.20;;;;;;5073632;28;20044;-74
2021/03/23 10:20:54;;;;;;;43.72;21.95;;;9.00;78.20;;;;;;5073984;28;20021;-74
2021/03/23 10:23:21;;;;;;;37.17;20.58;;;9.10;78.30;;;;;;5073557;28;20024;-73
2021/03/23 10:25:47;;;;;;;39.85;20.40;;;9.10;78.10;;;;;;5073470;28;20029;-73
2021/03/23 10:28:26;;;;;;;38.30;21.42;;;9.20;78.00;;;;;;5073727;28;20548;-73
2021/03/23 10:31:11;;;;;;;39.13;21.80;;;9.40;78.40;;;;;;5073248;28;20142;-73
2021/03/23 10:33:39;;;;;;;34.53;19.30;;;9.40;77.50;;;;;;5074975;28;20031;-76
2021/03/23 10:36:08;;;;;;;41.22;22.08;;;9.50;77.40;;;;;;5074533;28;20031;-74
2021/03/23 10:38:39;;;;;;;40.83;22.10;;;9.50;77.40;;;;;;5073319;28;20370;-74
2021/03/23 10:41:17;;;;;;;38.85;22.23;;;9.50;77.30;;;;;;5073253;28;20025;-74
2021/03/23 10:43:44;;;;;;;41.50;22.92;;;9.50;77.10;;;;;;5073116;28;20501;-74
2021/03/23 10:46:27;;;;;;;39.03;21.90;;;9.50;77.10;;;;;;5073104;28;20029;-75
2021/03/23 10:48:53;;;;;;;43.95;23.83;;;9.50;77.20;;;;;;5073103;28;20054;-75
2021/03/23 10:51:28;;;;;;;37.90;22.15;;;9.50;77.10;;;;;;5073007;28;20025;-75
2021/03/23 10:53:59;;;;;;;49.50;27.65;;;9.50;77.10;;;;;;5074340;28;20108;-75
2021/03/23 10:56:30;;;;;;;46.13;24.70;;;9.50;77.10;;;;;;5074226;28;20095;-74
2021/03/23 10:59:05;;;;;;;43.55;23.17;;;9.50;77.10;;;;;;5072973;28;20081;-75
2021/03/23 11:01:31;;;;;;;42.42;24.67;;;9.50;77.10;;;;;;5074170;28;20025;-73
2021/03/23 11:04:13;;;;;;;43.28;23.73;;;9.50;77.10;;;;;;5073075;28;20020;-74
2021/03/23 11:06:40;;;;;;;42.85;23.02;;;9.50;77.10;;;;;;5073041;28;20536;-73
2021/03/23 11:09:10;;;;;;;41.38;22.95;;;9.50;77.10;;;;;;5073825;28;20031;-74
2021/03/23 11:11:36;;;;;;;42.88;24.05;;;9.60;77.10;;;;;;5072665;28;20495;-73
2021/03/23 11:14:03;;;;;;;43.10;23.67;;;9.60;76.90;;;;;;5072425;28;20021;-73
2021/03/23 11:16:33;;;;;;;40.15;23.27;;;9.60;76.70;;;;;;5072636;28;20342;-74
2021/03/23 11:19:30;;;;;;;47.38;26.33;;;9.70;76.70;;;;;;5073722;28;20029;-74
2021/03/23 11:22:02;;;;;;;47.25;26.15;;;9.80;76.50;;;;;;5073514;28;20024;-74
2021/03/23 11:24:28;;;;;;;43.90;24.75;;;9.80;76.30;;;;;;5072478;28;20475;-75
2021/03/23 11:26:55;;;;;;;41.65;23.50;;;9.80;76.30;;;;;;5072494;28;20028;-74
2021/03/23 11:29:20;;;;;;;44.63;24.73;;;9.90;76.20;;;;;;5073266;28;20047;-75
2021/03/23 11:31:46;;;;;;;42.13;24.45;;;10.00;76.10;;;;;;5072814;28;20036;-74
2021/03/23 11:34:12;;;;;;;39.08;22.38;;;10.10;75.80;;;;;;5072064;28;20034;-74
2021/03/23 11:36:39;;;;;;;40.88;23.50;;;10.10;75.60;;;;;;5073662;28;20111;-74
2021/03/23 11:39:06;;;;;;;40.22;23.77;;;10.20;75.60;;;;;;5072046;28;20025;-75
2021/03/23 11:41:44;;;;;;;47.35;24.60;;;10.20;75.40;;;;;;5073674;28;20036;-76
2021/03/23 11:44:24;;;;;;;44.63;25.80;;;10.20;75.40;;;;;;5071939;28;20020;-75
2021/03/23 11:47:10;;;;;;;44.75;24.88;;;10.20;75.10;;;;;;5073131;28;20049;-76
2021/03/23 11:50:08;;;;;;;42.17;23.42;;;10.20;75.20;;;;;;5073049;28;20025;-75
2021/03/23 11:52:36;;;;;;;50.25;26.05;;;10.10;75.30;;;;;;5071499;28;20029;-74
2021/03/23 11:55:04;;;;;;;47.17;25.67;;;10.20;75.30;;;;;;5071508;28;20054;-74
2021/03/23 11:57:30;;;;;;;46.60;24.55;;;10.20;75.20;;;;;;5071762;28;20183;-73
2021/03/23 11:59:56;;;;;;;43.55;25.88;;;10.10;75.10;;;;;;5072902;28;20050;-74
2021/03/23 12:02:22;;;;;;;44.47;24.88;;;10.10;75.20;;;;;;5073050;28;20103;-74
2021/03/23 12:04:48;;;;;;;48.60;27.17;;;10.20;75.10;;;;;;5072913;28;20024;-75
2021/03/23 12:07:35;;;;;;;43.85;24.55;;;10.20;74.80;;;;;;5071532;28;20024;-75
2021/03/23 12:10:10;;;;;;;45.00;27.13;;;10.20;74.90;;;;;;5072642;28;20029;-75
2021/03/23 12:13:12;;;;;;;45.42;25.75;;;10.30;74.70;;;;;;5071383;28;20024;-74
2021/03/23 12:15:43;;;;;;;48.42;25.58;;;10.30;74.90;;;;;;5060621;28;20124;-75
2021/03/23 12:18:15;;;;;;;45.38;26.00;;;10.30;75.00;;;;;;5071370;28;20028;-75
2021/03/23 12:20:41;;;;;;;46.25;25.70;;;10.30;75.00;;;;;;5072452;28;20021;-75
2021/03/23 12:23:08;;;;;;;48.40;25.58;;;10.30;75.00;;;;;;5072677;28;20028;-75
2021/03/23 12:25:35;;;;;;;42.53;23.15;;;10.40;74.90;;;;;;5072514;28;20109;-75
2021/03/23 12:28:00;;;;;;;40.25;23.95;;;10.50;74.90;;;;;;5071421;28;20436;-75
2021/03/23 12:30:27;;;;;;;44.38;25.75;;;10.60;74.70;;;;;;5072178;28;20076;-75
2021/03/23 12:32:55;;;;;;;46.55;26.33;;;10.60;74.30;;;;;;5071169;28;20039;-74
2021/03/23 12:35:24;;;;;;;42.63;25.15;;;10.70;74.00;;;;;;5072689;28;20063;-74
2021/03/23 12:37:54;;;;;;;42.38;24.52;;;10.70;74.00;;;;;;5072395;28;20369;-75
2021/03/23 12:40:22;;;;;;;41.30;24.00;;;10.70;74.10;;;;;;5071075;28;20402;-75
2021/03/23 12:42:48;;;;;;;46.30;25.83;;;10.70;74.00;;;;;;5072425;28;20017;-74
2021/03/23 12:45:32;;;;;;;44.65;25.77;;;10.70;74.00;;;;;;5075276;28;20035;-74
2021/03/23 12:47:58;;;;;;;50.28;27.15;;;10.70;74.00;;;;;;5075161;28;20020;-74
2021/03/23 12:50:25;;;;;;;43.10;23.67;;;10.70;74.00;;;;;;5076683;28;20027;-74
2021/03/23 12:52:52;;;;;;;43.35;24.58;;;10.70;74.00;;;;;;5075101;28;20028;-74
2021/03/23 12:55:23;;;;;;;50.38;26.77;;;10.70;74.10;;;;;;5076374;28;20033;-74
2021/03/23 12:57:56;;;;;;;50.97;26.77;;;10.70;74.10;;;;;;5076553;28;20478;-76
2021/03/23 13:00:32;;;;;;;44.67;25.55;;;10.70;74.30;;;;;;5074919;28;20128;-74
2021/03/23 13:02:58;;;;;;;45.80;25.42;;;10.70;74.30;;;;;;5074855;28;20048;-74
2021/03/23 13:05:24;;;;;;;43.03;24.25;;;10.80;74.40;;;;;;5076020;28;20073;-74
2021/03/23 13:07:54;;;;;;;46.80;24.83;;;10.80;74.30;;;;;;5074855;28;20125;-74
2021/03/23 13:10:36;;;;;;;46.13;24.30;;;10.80;74.10;;;;;;5076109;28;20353;-74